sensor_id;sensor_type;location;lat;lon;timestamp;P1;durP1;ratioP1;P2;durP2;ratioP2
67889;SDS011;54685;52.082;5.426;2023-08-01T00:00:10;5.60;;;3.03;;
67889;SDS011;54685;52.082;5.426;2023-08-01T00:02:38;5.95;;;2.95;;
67889;SDS011;54685;52.082;5.426;2023-08-01T00:05:05;5.20;;;3.33;;
67889;SDS011;54685;52.082;5.426;2023-08-01T00:07:32;5.93;;;3.13;;
67889;SDS011;54685;52.082;5.426;2023-08-01T00:10:03;6.15;;;3.70;;
67889;SDS011;54685;52.082;5.426;2023-08-01T00:12:30;6.70;;;3.47;;
67889;SDS011;54685;52.082;5.426;2023-08-01T00:14:57;7.90;;;2.55;;
67889;SDS011;54685;52.082;5.426;2023-08-01T00:17:24;10.43;;;3.13;;
67889;SDS011;54685;52.082;5.426;2023-08-01T00:19:51;5.22;;;2.30;;
67889;SDS011;54685;52.082;5.426;2023-08-01T00:22:18;6.57;;;3.00;;
67889;SDS011;54685;52.082;5.426;2023-08-01T00:24:44;5.28;;;2.38;;
67889;SDS011;54685;52.082;5.426;2023-08-01T00:27:13;7.80;;;2.45;;
67889;SDS011;54685;52.082;5.426;2023-08-01T00:29:40;8.80;;;2.83;;
67889;SDS011;54685;52.082;5.426;2023-08-01T00:32:07;8.45;;;3.25;;
67889;SDS011;54685;52.082;5.426;2023-08-01T00:34:34;7.40;;;2.60;;
67889;SDS011;54685;52.082;5.426;2023-08-01T00:37:02;4.97;;;2.40;;
67889;SDS011;54685;52.082;5.426;2023-08-01T00:39:29;5.88;;;2.63;;
67889;SDS011;54685;52.082;5.426;2023-08-01T00:41:56;5.32;;;2.67;;
67889;SDS011;54685;52.082;5.426;2023-08-01T00:44:23;5.05;;;2.60;;
67889;SDS011;54685;52.082;5.426;2023-08-01T00:46:49;5.03;;;2.70;;
67889;SDS011;54685;52.082;5.426;2023-08-01T00:49:17;6.93;;;2.60;;
67889;SDS011;54685;52.082;5.426;2023-08-01T00:51:44;8.68;;;2.85;;
67889;SDS011;54685;52.082;5.426;2023-08-01T00:54:11;5.40;;;2.63;;
67889;SDS011;54685;52.082;5.426;2023-08-01T00:56:38;10.13;;;3.40;;
67889;SDS011;54685;52.082;5.426;2023-08-01T00:59:05;9.70;;;3.50;;
67889;SDS011;54685;52.082;5.426;2023-08-01T01:01:32;7.18;;;3.28;;
67889;SDS011;54685;52.082;5.426;2023-08-01T01:03:59;6.40;;;3.38;;
67889;SDS011;54685;52.082;5.426;2023-08-01T01:06:34;5.95;;;3.05;;
67889;SDS011;54685;52.082;5.426;2023-08-01T01:09:14;6.03;;;3.60;;
67889;SDS011;54685;52.082;5.426;2023-08-01T01:11:44;7.40;;;4.07;;
67889;SDS011;54685;52.082;5.426;2023-08-01T01:14:12;7.38;;;4.53;;
67889;SDS011;54685;52.082;5.426;2023-08-01T01:16:39;7.82;;;3.47;;
67889;SDS011;54685;52.082;5.426;2023-08-01T01:19:07;12.98;;;4.50;;
67889;SDS011;54685;52.082;5.426;2023-08-01T01:21:35;8.85;;;4.53;;
67889;SDS011;54685;52.082;5.426;2023-08-01T01:24:05;8.18;;;4.50;;
67889;SDS011;54685;52.082;5.426;2023-08-01T01:26:33;7.15;;;4.43;;
67889;SDS011;54685;52.082;5.426;2023-08-01T01:29:01;7.32;;;4.82;;
67889;SDS011;54685;52.082;5.426;2023-08-01T01:31:30;14.60;;;4.78;;
67889;SDS011;54685;52.082;5.426;2023-08-01T01:33:59;10.25;;;4.72;;
67889;SDS011;54685;52.082;5.426;2023-08-01T01:36:25;10.07;;;5.43;;
67889;SDS011;54685;52.082;5.426;2023-08-01T01:38:52;7.43;;;4.95;;
67889;SDS011;54685;52.082;5.426;2023-08-01T01:41:19;11.77;;;5.15;;
67889;SDS011;54685;52.082;5.426;2023-08-01T01:43:46;10.95;;;5.65;;
67889;SDS011;54685;52.082;5.426;2023-08-01T01:46:13;15.88;;;6.15;;
67889;SDS011;54685;52.082;5.426;2023-08-01T01:48:40;14.32;;;6.72;;
67889;SDS011;54685;52.082;5.426;2023-08-01T01:51:08;12.48;;;5.82;;
67889;SDS011;54685;52.082;5.426;2023-08-01T01:53:35;14.00;;;6.57;;
67889;SDS011;54685;52.082;5.426;2023-08-01T01:56:02;16.27;;;7.47;;
67889;SDS011;54685;52.082;5.426;2023-08-01T01:58:29;15.50;;;7.10;;
67889;SDS011;54685;52.082;5.426;2023-08-01T02:00:55;11.45;;;6.60;;
67889;SDS011;54685;52.082;5.426;2023-08-01T02:03:22;10.70;;;7.43;;
67889;SDS011;54685;52.082;5.426;2023-08-01T02:05:49;14.80;;;7.28;;
67889;SDS011;54685;52.082;5.426;2023-08-01T02:08:17;16.73;;;7.20;;
67889;SDS011;54685;52.082;5.426;2023-08-01T02:10:45;12.43;;;6.85;;
67889;SDS011;54685;52.082;5.426;2023-08-01T02:13:12;14.95;;;7.22;;
67889;SDS011;54685;52.082;5.426;2023-08-01T02:15:39;12.55;;;6.63;;
67889;SDS011;54685;52.082;5.426;2023-08-01T02:18:06;11.88;;;6.85;;
67889;SDS011;54685;52.082;5.426;2023-08-01T02:20:33;13.02;;;7.50;;
67889;SDS011;54685;52.082;5.426;2023-08-01T02:22:59;9.73;;;6.30;;
67889;SDS011;54685;52.082;5.426;2023-08-01T02:25:26;13.68;;;6.80;;
67889;SDS011;54685;52.082;5.426;2023-08-01T02:27:53;17.20;;;7.03;;
67889;SDS011;54685;52.082;5.426;2023-08-01T02:30:20;14.75;;;7.60;;
67889;SDS011;54685;52.082;5.426;2023-08-01T02:32:46;8.85;;;6.22;;
67889;SDS011;54685;52.082;5.426;2023-08-01T02:35:13;18.15;;;7.30;;
67889;SDS011;54685;52.082;5.426;2023-08-01T02:37:40;17.73;;;6.88;;
67889;SDS011;54685;52.082;5.426;2023-08-01T02:40:08;14.40;;;7.00;;
67889;SDS011;54685;52.082;5.426;2023-08-01T02:42:35;11.88;;;6.65;;
67889;SDS011;54685;52.082;5.426;2023-08-01T02:45:02;18.27;;;6.85;;
67889;SDS011;54685;52.082;5.426;2023-08-01T02:47:29;13.13;;;6.93;;
67889;SDS011;54685;52.082;5.426;2023-08-01T02:49:56;15.30;;;6.65;;
67889;SDS011;54685;52.082;5.426;2023-08-01T02:52:23;10.70;;;6.03;;
67889;SDS011;54685;52.082;5.426;2023-08-01T02:54:49;17.20;;;6.40;;
67889;SDS011;54685;52.082;5.426;2023-08-01T02:57:16;17.02;;;6.57;;
67889;SDS011;54685;52.082;5.426;2023-08-01T02:59:43;18.52;;;5.88;;
67889;SDS011;54685;52.082;5.426;2023-08-01T03:02:10;23.60;;;7.70;;
67889;SDS011;54685;52.082;5.426;2023-08-01T03:04:37;21.63;;;6.40;;
67889;SDS011;54685;52.082;5.426;2023-08-01T03:07:12;17.40;;;6.65;;
67889;SDS011;54685;52.082;5.426;2023-08-01T03:09:39;18.75;;;6.43;;
67889;SDS011;54685;52.082;5.426;2023-08-01T03:12:06;13.18;;;5.55;;
67889;SDS011;54685;52.082;5.426;2023-08-01T03:14:33;13.50;;;5.65;;
67889;SDS011;54685;52.082;5.426;2023-08-01T03:17:00;16.35;;;4.95;;
67889;SDS011;54685;52.082;5.426;2023-08-01T03:19:26;11.45;;;4.25;;
67889;SDS011;54685;52.082;5.426;2023-08-01T03:21:53;10.85;;;5.03;;
67889;SDS011;54685;52.082;5.426;2023-08-01T03:24:22;13.20;;;4.75;;
67889;SDS011;54685;52.082;5.426;2023-08-01T03:26:49;6.82;;;4.03;;
67889;SDS011;54685;52.082;5.426;2023-08-01T03:29:16;12.35;;;4.20;;
67889;SDS011;54685;52.082;5.426;2023-08-01T03:31:42;12.35;;;4.43;;
67889;SDS011;54685;52.082;5.426;2023-08-01T03:34:09;10.98;;;4.22;;
67889;SDS011;54685;52.082;5.426;2023-08-01T03:36:36;12.60;;;4.25;;
67889;SDS011;54685;52.082;5.426;2023-08-01T03:39:04;16.08;;;5.00;;
67889;SDS011;54685;52.082;5.426;2023-08-01T03:41:31;10.20;;;4.03;;
67889;SDS011;54685;52.082;5.426;2023-08-01T03:43:59;13.75;;;4.80;;
67889;SDS011;54685;52.082;5.426;2023-08-01T03:46:26;10.68;;;4.68;;
67889;SDS011;54685;52.082;5.426;2023-08-01T03:48:52;9.05;;;4.22;;
67889;SDS011;54685;52.082;5.426;2023-08-01T03:51:19;11.63;;;4.50;;
67889;SDS011;54685;52.082;5.426;2023-08-01T03:53:46;10.77;;;4.65;;
67889;SDS011;54685;52.082;5.426;2023-08-01T03:56:28;17.63;;;4.72;;
67889;SDS011;54685;52.082;5.426;2023-08-01T03:58:55;8.65;;;3.20;;
67889;SDS011;54685;52.082;5.426;2023-08-01T04:01:22;7.43;;;3.30;;
67889;SDS011;54685;52.082;5.426;2023-08-01T04:03:49;11.15;;;3.47;;
67889;SDS011;54685;52.082;5.426;2023-08-01T04:06:16;5.38;;;2.83;;
67889;SDS011;54685;52.082;5.426;2023-08-01T04:08:43;6.55;;;3.50;;
67889;SDS011;54685;52.082;5.426;2023-08-01T04:11:09;13.52;;;3.65;;
67889;SDS011;54685;52.082;5.426;2023-08-01T04:13:37;10.30;;;3.13;;
67889;SDS011;54685;52.082;5.426;2023-08-01T04:16:04;11.02;;;3.50;;
67889;SDS011;54685;52.082;5.426;2023-08-01T04:18:31;11.07;;;4.15;;
67889;SDS011;54685;52.082;5.426;2023-08-01T04:20:58;8.40;;;3.50;;
67889;SDS011;54685;52.082;5.426;2023-08-01T04:23:25;13.93;;;4.47;;
67889;SDS011;54685;52.082;5.426;2023-08-01T04:25:51;14.48;;;4.10;;
67889;SDS011;54685;52.082;5.426;2023-08-01T04:28:19;9.30;;;4.18;;
67889;SDS011;54685;52.082;5.426;2023-08-01T04:30:49;9.73;;;4.25;;
67889;SDS011;54685;52.082;5.426;2023-08-01T04:33:17;13.07;;;4.70;;
67889;SDS011;54685;52.082;5.426;2023-08-01T04:35:44;12.88;;;4.80;;
67889;SDS011;54685;52.082;5.426;2023-08-01T04:38:14;11.75;;;5.07;;
67889;SDS011;54685;52.082;5.426;2023-08-01T04:40:42;14.07;;;5.40;;
67889;SDS011;54685;52.082;5.426;2023-08-01T04:43:10;15.55;;;5.32;;
67889;SDS011;54685;52.082;5.426;2023-08-01T04:45:37;13.57;;;5.38;;
67889;SDS011;54685;52.082;5.426;2023-08-01T04:48:04;16.67;;;5.63;;
67889;SDS011;54685;52.082;5.426;2023-08-01T04:50:31;16.38;;;5.40;;
67889;SDS011;54685;52.082;5.426;2023-08-01T04:52:58;14.10;;;5.07;;
67889;SDS011;54685;52.082;5.426;2023-08-01T04:55:24;21.05;;;5.55;;
67889;SDS011;54685;52.082;5.426;2023-08-01T04:57:51;14.45;;;4.88;;
67889;SDS011;54685;52.082;5.426;2023-08-01T05:00:18;14.07;;;5.13;;
67889;SDS011;54685;52.082;5.426;2023-08-01T05:02:45;16.58;;;5.32;;
67889;SDS011;54685;52.082;5.426;2023-08-01T05:05:12;12.85;;;4.90;;
67889;SDS011;54685;52.082;5.426;2023-08-01T05:07:39;16.83;;;5.28;;
67889;SDS011;54685;52.082;5.426;2023-08-01T05:10:06;14.05;;;5.55;;
67889;SDS011;54685;52.082;5.426;2023-08-01T05:12:33;13.68;;;5.15;;
67889;SDS011;54685;52.082;5.426;2023-08-01T05:15:00;23.67;;;6.47;;
67889;SDS011;54685;52.082;5.426;2023-08-01T05:17:26;15.10;;;5.60;;
67889;SDS011;54685;52.082;5.426;2023-08-01T05:19:53;18.50;;;6.05;;
67889;SDS011;54685;52.082;5.426;2023-08-01T05:22:21;12.07;;;4.95;;
67889;SDS011;54685;52.082;5.426;2023-08-01T05:24:48;13.95;;;5.30;;
67889;SDS011;54685;52.082;5.426;2023-08-01T05:27:15;22.23;;;5.95;;
67889;SDS011;54685;52.082;5.426;2023-08-01T05:29:42;17.33;;;4.85;;
67889;SDS011;54685;52.082;5.426;2023-08-01T05:32:09;17.23;;;5.50;;
67889;SDS011;54685;52.082;5.426;2023-08-01T05:34:36;23.67;;;5.47;;
67889;SDS011;54685;52.082;5.426;2023-08-01T05:37:02;14.20;;;4.95;;
67889;SDS011;54685;52.082;5.426;2023-08-01T05:39:30;15.55;;;5.13;;
67889;SDS011;54685;52.082;5.426;2023-08-01T05:41:57;9.63;;;4.57;;
67889;SDS011;54685;52.082;5.426;2023-08-01T05:44:24;20.60;;;6.13;;
67889;SDS011;54685;52.082;5.426;2023-08-01T05:46:50;17.55;;;5.43;;
67889;SDS011;54685;52.082;5.426;2023-08-01T05:49:17;11.73;;;4.28;;
67889;SDS011;54685;52.082;5.426;2023-08-01T05:51:44;17.55;;;5.15;;
67889;SDS011;54685;52.082;5.426;2023-08-01T05:54:11;22.15;;;4.93;;
67889;SDS011;54685;52.082;5.426;2023-08-01T05:56:38;17.65;;;5.60;;
67889;SDS011;54685;52.082;5.426;2023-08-01T05:59:05;14.07;;;4.97;;
67889;SDS011;54685;52.082;5.426;2023-08-01T06:01:32;16.45;;;4.72;;
67889;SDS011;54685;52.082;5.426;2023-08-01T06:04:00;17.98;;;5.05;;
67889;SDS011;54685;52.082;5.426;2023-08-01T06:06:26;15.93;;;4.50;;
67889;SDS011;54685;52.082;5.426;2023-08-01T06:08:53;13.85;;;5.45;;
67889;SDS011;54685;52.082;5.426;2023-08-01T06:11:20;13.93;;;4.18;;
67889;SDS011;54685;52.082;5.426;2023-08-01T06:13:47;15.30;;;4.45;;
67889;SDS011;54685;52.082;5.426;2023-08-01T06:16:14;21.30;;;5.45;;
67889;SDS011;54685;52.082;5.426;2023-08-01T06:18:40;17.27;;;4.95;;
67889;SDS011;54685;52.082;5.426;2023-08-01T06:21:07;9.18;;;3.45;;
67889;SDS011;54685;52.082;5.426;2023-08-01T06:23:34;16.30;;;4.68;;
67889;SDS011;54685;52.082;5.426;2023-08-01T06:26:01;10.75;;;3.97;;
67889;SDS011;54685;52.082;5.426;2023-08-01T06:28:28;19.77;;;5.00;;
67889;SDS011;54685;52.082;5.426;2023-08-01T06:30:59;14.07;;;4.63;;
67889;SDS011;54685;52.082;5.426;2023-08-01T06:33:29;18.17;;;4.72;;
67889;SDS011;54685;52.082;5.426;2023-08-01T06:35:56;15.18;;;3.95;;
67889;SDS011;54685;52.082;5.426;2023-08-01T06:38:24;13.43;;;4.30;;
67889;SDS011;54685;52.082;5.426;2023-08-01T06:40:50;12.75;;;4.05;;
67889;SDS011;54685;52.082;5.426;2023-08-01T06:43:17;12.27;;;3.58;;
67889;SDS011;54685;52.082;5.426;2023-08-01T06:45:46;13.30;;;3.47;;
67889;SDS011;54685;52.082;5.426;2023-08-01T06:48:13;13.02;;;3.53;;
67889;SDS011;54685;52.082;5.426;2023-08-01T06:50:40;16.48;;;3.90;;
67889;SDS011;54685;52.082;5.426;2023-08-01T06:53:06;14.85;;;3.58;;
67889;SDS011;54685;52.082;5.426;2023-08-01T06:55:34;10.02;;;3.15;;
67889;SDS011;54685;52.082;5.426;2023-08-01T06:58:01;15.30;;;4.13;;
67889;SDS011;54685;52.082;5.426;2023-08-01T07:00:28;13.85;;;3.53;;
67889;SDS011;54685;52.082;5.426;2023-08-01T07:02:55;9.60;;;3.63;;
67889;SDS011;54685;52.082;5.426;2023-08-01T07:05:23;12.38;;;3.28;;
67889;SDS011;54685;52.082;5.426;2023-08-01T07:07:50;11.68;;;3.63;;
67889;SDS011;54685;52.082;5.426;2023-08-01T07:10:17;9.88;;;3.17;;
67889;SDS011;54685;52.082;5.426;2023-08-01T07:12:44;9.57;;;3.17;;
67889;SDS011;54685;52.082;5.426;2023-08-01T07:15:11;12.65;;;3.50;;
67889;SDS011;54685;52.082;5.426;2023-08-01T07:17:38;9.02;;;3.75;;
67889;SDS011;54685;52.082;5.426;2023-08-01T07:20:05;8.90;;;3.33;;
67889;SDS011;54685;52.082;5.426;2023-08-01T07:22:32;10.73;;;3.22;;
67889;SDS011;54685;52.082;5.426;2023-08-01T07:24:59;14.25;;;3.83;;
67889;SDS011;54685;52.082;5.426;2023-08-01T07:27:26;9.98;;;3.10;;
67889;SDS011;54685;52.082;5.426;2023-08-01T07:29:53;10.02;;;3.30;;
67889;SDS011;54685;52.082;5.426;2023-08-01T07:32:20;11.10;;;3.20;;
67889;SDS011;54685;52.082;5.426;2023-08-01T07:34:46;12.20;;;3.53;;
67889;SDS011;54685;52.082;5.426;2023-08-01T07:37:13;13.73;;;3.50;;
67889;SDS011;54685;52.082;5.426;2023-08-01T07:39:40;10.05;;;3.53;;
67889;SDS011;54685;52.082;5.426;2023-08-01T07:42:07;11.07;;;2.97;;
67889;SDS011;54685;52.082;5.426;2023-08-01T07:44:34;8.70;;;2.65;;
67889;SDS011;54685;52.082;5.426;2023-08-01T07:47:00;8.23;;;2.53;;
67889;SDS011;54685;52.082;5.426;2023-08-01T07:49:27;8.25;;;2.80;;
67889;SDS011;54685;52.082;5.426;2023-08-01T07:51:54;13.75;;;3.22;;
67889;SDS011;54685;52.082;5.426;2023-08-01T07:54:21;7.78;;;2.88;;
67889;SDS011;54685;52.082;5.426;2023-08-01T07:56:48;7.53;;;2.90;;
67889;SDS011;54685;52.082;5.426;2023-08-01T07:59:15;8.10;;;3.00;;
67889;SDS011;54685;52.082;5.426;2023-08-01T08:01:42;8.57;;;2.90;;
67889;SDS011;54685;52.082;5.426;2023-08-01T08:04:09;12.23;;;2.85;;
67889;SDS011;54685;52.082;5.426;2023-08-01T08:06:36;17.17;;;3.60;;
67889;SDS011;54685;52.082;5.426;2023-08-01T08:09:04;16.52;;;3.90;;
67889;SDS011;54685;52.082;5.426;2023-08-01T08:11:30;12.27;;;3.33;;
67889;SDS011;54685;52.082;5.426;2023-08-01T08:13:57;12.45;;;3.45;;
67889;SDS011;54685;52.082;5.426;2023-08-01T08:16:24;11.68;;;3.15;;
67889;SDS011;54685;52.082;5.426;2023-08-01T08:18:51;14.93;;;3.50;;
67889;SDS011;54685;52.082;5.426;2023-08-01T08:21:18;15.68;;;4.00;;
67889;SDS011;54685;52.082;5.426;2023-08-01T08:23:45;11.07;;;2.70;;
67889;SDS011;54685;52.082;5.426;2023-08-01T08:26:12;9.52;;;2.63;;
67889;SDS011;54685;52.082;5.426;2023-08-01T08:28:39;8.88;;;2.60;;
67889;SDS011;54685;52.082;5.426;2023-08-01T08:31:08;7.28;;;2.15;;
67889;SDS011;54685;52.082;5.426;2023-08-01T08:33:35;14.95;;;2.95;;
67889;SDS011;54685;52.082;5.426;2023-08-01T08:36:02;4.38;;;2.10;;
67889;SDS011;54685;52.082;5.426;2023-08-01T08:38:30;10.73;;;2.40;;
67889;SDS011;54685;52.082;5.426;2023-08-01T08:41:08;7.90;;;2.78;;
67889;SDS011;54685;52.082;5.426;2023-08-01T08:43:41;2.95;;;1.90;;
67889;SDS011;54685;52.082;5.426;2023-08-01T08:46:08;4.97;;;1.90;;
67889;SDS011;54685;52.082;5.426;2023-08-01T08:48:37;8.48;;;2.25;;
67889;SDS011;54685;52.082;5.426;2023-08-01T08:51:07;10.52;;;6.88;;
67889;SDS011;54685;52.082;5.426;2023-08-01T08:53:36;10.43;;;2.53;;
67889;SDS011;54685;52.082;5.426;2023-08-01T08:56:04;6.03;;;2.10;;
67889;SDS011;54685;52.082;5.426;2023-08-01T08:58:34;8.55;;;2.40;;
67889;SDS011;54685;52.082;5.426;2023-08-01T09:01:05;9.10;;;1.92;;
67889;SDS011;54685;52.082;5.426;2023-08-01T09:03:33;6.55;;;2.03;;
67889;SDS011;54685;52.082;5.426;2023-08-01T09:06:02;6.47;;;2.05;;
67889;SDS011;54685;52.082;5.426;2023-08-01T09:08:35;3.75;;;1.75;;
67889;SDS011;54685;52.082;5.426;2023-08-01T09:11:03;8.25;;;1.80;;
67889;SDS011;54685;52.082;5.426;2023-08-01T09:13:31;9.43;;;2.10;;
67889;SDS011;54685;52.082;5.426;2023-08-01T09:15:57;7.18;;;1.95;;
67889;SDS011;54685;52.082;5.426;2023-08-01T09:18:27;4.75;;;1.88;;
67889;SDS011;54685;52.082;5.426;2023-08-01T09:20:54;4.40;;;1.75;;
67889;SDS011;54685;52.082;5.426;2023-08-01T09:23:26;7.63;;;1.80;;
67889;SDS011;54685;52.082;5.426;2023-08-01T09:25:53;4.95;;;1.75;;
67889;SDS011;54685;52.082;5.426;2023-08-01T09:28:22;7.60;;;2.20;;
67889;SDS011;54685;52.082;5.426;2023-08-01T09:30:51;6.90;;;2.00;;
67889;SDS011;54685;52.082;5.426;2023-08-01T09:33:21;5.40;;;1.83;;
67889;SDS011;54685;52.082;5.426;2023-08-01T09:35:51;5.63;;;1.70;;
67889;SDS011;54685;52.082;5.426;2023-08-01T09:38:19;7.45;;;2.08;;
67889;SDS011;54685;52.082;5.426;2023-08-01T09:40:46;6.25;;;1.75;;
67889;SDS011;54685;52.082;5.426;2023-08-01T09:43:14;4.78;;;1.73;;
67889;SDS011;54685;52.082;5.426;2023-08-01T09:45:50;7.55;;;2.10;;
67889;SDS011;54685;52.082;5.426;2023-08-01T09:48:24;9.60;;;2.40;;
67889;SDS011;54685;52.082;5.426;2023-08-01T09:51:08;7.90;;;2.03;;
67889;SDS011;54685;52.082;5.426;2023-08-01T09:53:36;7.70;;;2.13;;
67889;SDS011;54685;52.082;5.426;2023-08-01T09:56:21;7.53;;;2.03;;
67889;SDS011;54685;52.082;5.426;2023-08-01T09:58:52;5.50;;;1.73;;
67889;SDS011;54685;52.082;5.426;2023-08-01T10:01:21;8.23;;;2.22;;
67889;SDS011;54685;52.082;5.426;2023-08-01T10:03:50;7.00;;;1.90;;
67889;SDS011;54685;52.082;5.426;2023-08-01T10:06:19;8.70;;;1.77;;
67889;SDS011;54685;52.082;5.426;2023-08-01T10:08:48;9.52;;;2.40;;
67889;SDS011;54685;52.082;5.426;2023-08-01T10:11:21;6.70;;;2.00;;
67889;SDS011;54685;52.082;5.426;2023-08-01T10:16:16;8.80;;;2.00;;
67889;SDS011;54685;52.082;5.426;2023-08-01T10:18:43;9.18;;;1.95;;
67889;SDS011;54685;52.082;5.426;2023-08-01T10:21:14;5.25;;;1.90;;
67889;SDS011;54685;52.082;5.426;2023-08-01T10:23:43;5.25;;;1.50;;
67889;SDS011;54685;52.082;5.426;2023-08-01T10:26:11;5.25;;;1.85;;
67889;SDS011;54685;52.082;5.426;2023-08-01T10:28:40;5.43;;;1.98;;
67889;SDS011;54685;52.082;5.426;2023-08-01T10:31:09;6.03;;;2.05;;
67889;SDS011;54685;52.082;5.426;2023-08-01T10:33:41;12.13;;;2.17;;
67889;SDS011;54685;52.082;5.426;2023-08-01T10:36:14;10.68;;;2.50;;
67889;SDS011;54685;52.082;5.426;2023-08-01T10:38:51;7.05;;;1.83;;
67889;SDS011;54685;52.082;5.426;2023-08-01T10:44:09;5.22;;;1.90;;
67889;SDS011;54685;52.082;5.426;2023-08-01T10:46:54;11.30;;;1.98;;
67889;SDS011;54685;52.082;5.426;2023-08-01T10:49:38;5.40;;;1.73;;
67889;SDS011;54685;52.082;5.426;2023-08-01T10:52:16;9.27;;;1.98;;
67889;SDS011;54685;52.082;5.426;2023-08-01T10:55:00;5.50;;;1.73;;
67889;SDS011;54685;52.082;5.426;2023-08-01T10:57:34;6.18;;;1.67;;
67889;SDS011;54685;52.082;5.426;2023-08-01T11:00:02;6.22;;;1.83;;
67889;SDS011;54685;52.082;5.426;2023-08-01T11:02:36;9.00;;;1.83;;
67889;SDS011;54685;52.082;5.426;2023-08-01T11:05:04;8.38;;;2.22;;
67889;SDS011;54685;52.082;5.426;2023-08-01T11:07:33;5.32;;;1.70;;
67889;SDS011;54685;52.082;5.426;2023-08-01T11:12:38;4.95;;;1.58;;
67889;SDS011;54685;52.082;5.426;2023-08-01T11:15:13;7.20;;;1.98;;
67889;SDS011;54685;52.082;5.426;2023-08-01T11:17:41;7.03;;;1.67;;
67889;SDS011;54685;52.082;5.426;2023-08-01T11:20:12;7.60;;;1.80;;
67889;SDS011;54685;52.082;5.426;2023-08-01T11:22:58;4.00;;;1.40;;
67889;SDS011;54685;52.082;5.426;2023-08-01T11:25:32;8.80;;;1.87;;
67889;SDS011;54685;52.082;5.426;2023-08-01T11:28:06;7.20;;;1.70;;
67889;SDS011;54685;52.082;5.426;2023-08-01T11:30:35;7.63;;;1.83;;
67889;SDS011;54685;52.082;5.426;2023-08-01T11:33:02;7.85;;;2.00;;
67889;SDS011;54685;52.082;5.426;2023-08-01T11:35:43;6.72;;;1.80;;
67889;SDS011;54685;52.082;5.426;2023-08-01T11:38:10;5.43;;;1.65;;
67889;SDS011;54685;52.082;5.426;2023-08-01T11:40:37;5.13;;;1.55;;
67889;SDS011;54685;52.082;5.426;2023-08-01T11:43:04;8.23;;;2.10;;
67889;SDS011;54685;52.082;5.426;2023-08-01T11:45:31;5.30;;;1.60;;
67889;SDS011;54685;52.082;5.426;2023-08-01T11:47:58;5.18;;;1.58;;
67889;SDS011;54685;52.082;5.426;2023-08-01T11:50:25;7.15;;;1.40;;
67889;SDS011;54685;52.082;5.426;2023-08-01T11:52:52;4.07;;;1.40;;
67889;SDS011;54685;52.082;5.426;2023-08-01T11:57:51;5.05;;;1.75;;
67889;SDS011;54685;52.082;5.426;2023-08-01T12:00:23;5.70;;;1.70;;
67889;SDS011;54685;52.082;5.426;2023-08-01T12:02:52;8.05;;;1.98;;
67889;SDS011;54685;52.082;5.426;2023-08-01T12:05:40;7.22;;;1.55;;
67889;SDS011;54685;52.082;5.426;2023-08-01T12:10:39;5.22;;;1.80;;
67889;SDS011;54685;52.082;5.426;2023-08-01T12:13:23;7.40;;;1.95;;
67889;SDS011;54685;52.082;5.426;2023-08-01T12:15:54;6.85;;;1.80;;
67889;SDS011;54685;52.082;5.426;2023-08-01T12:18:28;6.95;;;1.90;;
67889;SDS011;54685;52.082;5.426;2023-08-01T12:20:59;6.35;;;2.10;;
67889;SDS011;54685;52.082;5.426;2023-08-01T12:23:28;9.18;;;2.53;;
67889;SDS011;54685;52.082;5.426;2023-08-01T12:25:55;8.55;;;2.17;;
67889;SDS011;54685;52.082;5.426;2023-08-01T12:28:22;9.32;;;2.45;;
67889;SDS011;54685;52.082;5.426;2023-08-01T12:30:49;7.70;;;2.03;;
67889;SDS011;54685;52.082;5.426;2023-08-01T12:33:18;6.72;;;1.60;;
67889;SDS011;54685;52.082;5.426;2023-08-01T12:35:45;9.40;;;2.10;;
67889;SDS011;54685;52.082;5.426;2023-08-01T12:38:12;4.93;;;1.83;;
67889;SDS011;54685;52.082;5.426;2023-08-01T12:40:39;9.80;;;1.90;;
67889;SDS011;54685;52.082;5.426;2023-08-01T12:43:06;8.27;;;2.40;;
67889;SDS011;54685;52.082;5.426;2023-08-01T12:45:33;8.88;;;2.53;;
67889;SDS011;54685;52.082;5.426;2023-08-01T12:48:00;8.52;;;2.42;;
67889;SDS011;54685;52.082;5.426;2023-08-01T12:50:27;9.50;;;2.35;;
67889;SDS011;54685;52.082;5.426;2023-08-01T12:52:54;5.95;;;2.03;;
67889;SDS011;54685;52.082;5.426;2023-08-01T12:55:22;6.60;;;1.90;;
67889;SDS011;54685;52.082;5.426;2023-08-01T12:57:50;7.43;;;2.03;;
67889;SDS011;54685;52.082;5.426;2023-08-01T13:00:18;6.65;;;1.40;;
67889;SDS011;54685;52.082;5.426;2023-08-01T13:02:45;5.97;;;1.88;;
67889;SDS011;54685;52.082;5.426;2023-08-01T13:05:13;6.13;;;1.60;;
67889;SDS011;54685;52.082;5.426;2023-08-01T13:07:40;8.45;;;1.60;;
67889;SDS011;54685;52.082;5.426;2023-08-01T13:10:08;7.55;;;1.33;;
67889;SDS011;54685;52.082;5.426;2023-08-01T13:12:35;3.92;;;1.48;;
67889;SDS011;54685;52.082;5.426;2023-08-01T13:15:02;9.27;;;2.17;;
67889;SDS011;54685;52.082;5.426;2023-08-01T13:17:43;4.75;;;1.90;;
67889;SDS011;54685;52.082;5.426;2023-08-01T13:20:11;6.03;;;2.05;;
67889;SDS011;54685;52.082;5.426;2023-08-01T13:22:38;8.40;;;2.15;;
67889;SDS011;54685;52.082;5.426;2023-08-01T13:25:05;5.00;;;2.00;;
67889;SDS011;54685;52.082;5.426;2023-08-01T13:27:35;6.50;;;2.03;;
67889;SDS011;54685;52.082;5.426;2023-08-01T13:30:02;6.75;;;2.00;;
67889;SDS011;54685;52.082;5.426;2023-08-01T13:32:29;6.60;;;2.53;;
67889;SDS011;54685;52.082;5.426;2023-08-01T13:34:59;11.15;;;2.50;;
67889;SDS011;54685;52.082;5.426;2023-08-01T13:37:26;9.82;;;2.63;;
67889;SDS011;54685;52.082;5.426;2023-08-01T13:39:57;12.65;;;2.10;;
67889;SDS011;54685;52.082;5.426;2023-08-01T13:42:25;8.68;;;2.13;;
67889;SDS011;54685;52.082;5.426;2023-08-01T13:44:53;10.55;;;2.40;;
67889;SDS011;54685;52.082;5.426;2023-08-01T13:47:21;7.63;;;2.10;;
67889;SDS011;54685;52.082;5.426;2023-08-01T13:49:48;9.95;;;2.60;;
67889;SDS011;54685;52.082;5.426;2023-08-01T13:52:14;5.22;;;1.80;;
67889;SDS011;54685;52.082;5.426;2023-08-01T13:54:41;7.13;;;2.30;;
67889;SDS011;54685;52.082;5.426;2023-08-01T13:57:08;7.03;;;1.55;;
67889;SDS011;54685;52.082;5.426;2023-08-01T13:59:35;5.78;;;1.58;;
67889;SDS011;54685;52.082;5.426;2023-08-01T14:02:04;5.57;;;1.90;;
67889;SDS011;54685;52.082;5.426;2023-08-01T14:04:35;6.45;;;1.95;;
67889;SDS011;54685;52.082;5.426;2023-08-01T14:07:02;5.90;;;1.70;;
67889;SDS011;54685;52.082;5.426;2023-08-01T14:09:29;7.53;;;1.83;;
67889;SDS011;54685;52.082;5.426;2023-08-01T14:12:00;8.73;;;2.22;;
67889;SDS011;54685;52.082;5.426;2023-08-01T14:14:27;5.22;;;1.50;;
67889;SDS011;54685;52.082;5.426;2023-08-01T14:16:54;9.93;;;2.10;;
67889;SDS011;54685;52.082;5.426;2023-08-01T14:19:35;7.70;;;1.88;;
67889;SDS011;54685;52.082;5.426;2023-08-01T14:22:02;7.05;;;1.55;;
67889;SDS011;54685;52.082;5.426;2023-08-01T14:24:31;5.57;;;1.73;;
67889;SDS011;54685;52.082;5.426;2023-08-01T14:26:59;5.95;;;1.70;;
67889;SDS011;54685;52.082;5.426;2023-08-01T14:29:26;6.05;;;1.95;;
67889;SDS011;54685;52.082;5.426;2023-08-01T14:31:52;8.18;;;2.20;;
67889;SDS011;54685;52.082;5.426;2023-08-01T14:34:19;9.10;;;2.40;;
67889;SDS011;54685;52.082;5.426;2023-08-01T14:36:46;7.78;;;2.08;;
67889;SDS011;54685;52.082;5.426;2023-08-01T14:39:13;7.50;;;1.83;;
67889;SDS011;54685;52.082;5.426;2023-08-01T14:41:48;7.60;;;2.15;;
67889;SDS011;54685;52.082;5.426;2023-08-01T14:44:30;7.75;;;2.33;;
67889;SDS011;54685;52.082;5.426;2023-08-01T14:46:57;9.43;;;1.95;;
67889;SDS011;54685;52.082;5.426;2023-08-01T14:49:25;8.38;;;2.10;;
67889;SDS011;54685;52.082;5.426;2023-08-01T14:51:58;8.93;;;2.30;;
67889;SDS011;54685;52.082;5.426;2023-08-01T14:54:32;5.03;;;1.45;;
67889;SDS011;54685;52.082;5.426;2023-08-01T14:57:07;5.55;;;1.63;;
67889;SDS011;54685;52.082;5.426;2023-08-01T14:59:36;7.60;;;2.10;;
67889;SDS011;54685;52.082;5.426;2023-08-01T15:02:03;5.80;;;2.13;;